sensor_id;sensor_type;location;lat;lon;timestamp;P1;durP1;ratioP1;P2;durP2;ratioP2
42294;SDS011;27947;47.556;18.718;2023-04-12T00:01:57;3.10;;;2.05;;
42294;SDS011;27947;47.556;18.718;2023-04-12T00:04:22;4.50;;;2.63;;
42294;SDS011;27947;47.556;18.718;2023-04-12T00:06:52;3.00;;;2.30;;
42294;SDS011;27947;47.556;18.718;2023-04-12T00:09:18;5.57;;;2.50;;
42294;SDS011;27947;47.556;18.718;2023-04-12T00:11:44;7.32;;;2.20;;
42294;SDS011;27947;47.556;18.718;2023-04-12T00:14:09;6.00;;;2.63;;
42294;SDS011;27947;47.556;18.718;2023-04-12T00:16:35;4.50;;;2.63;;
42294;SDS011;27947;47.556;18.718;2023-04-12T00:19:02;3.85;;;2.15;;
42294;SDS011;27947;47.556;18.718;2023-04-12T00:21:28;5.40;;;2.45;;
42294;SDS011;27947;47.556;18.718;2023-04-12T00:23:54;4.03;;;2.50;;
42294;SDS011;27947;47.556;18.718;2023-04-12T00:26:20;5.18;;;2.78;;
42294;SDS011;27947;47.556;18.718;2023-04-12T00:28:46;5.93;;;2.53;;
42294;SDS011;27947;47.556;18.718;2023-04-12T00:31:11;5.35;;;2.55;;
42294;SDS011;27947;47.556;18.718;2023-04-12T00:33:37;4.00;;;2.50;;
42294;SDS011;27947;47.556;18.718;2023-04-12T00:36:02;5.07;;;2.70;;
42294;SDS011;27947;47.556;18.718;2023-04-12T00:38:28;3.85;;;2.20;;
42294;SDS011;27947;47.556;18.718;2023-04-12T00:40:53;4.72;;;2.05;;
42294;SDS011;27947;47.556;18.718;2023-04-12T00:43:18;3.83;;;2.38;;
42294;SDS011;27947;47.556;18.718;2023-04-12T00:45:47;4.53;;;2.50;;
42294;SDS011;27947;47.556;18.718;2023-04-12T00:48:13;5.13;;;2.60;;
42294;SDS011;27947;47.556;18.718;2023-04-12T00:50:39;4.43;;;2.72;;
42294;SDS011;27947;47.556;18.718;2023-04-12T00:53:14;5.35;;;2.40;;
42294;SDS011;27947;47.556;18.718;2023-04-12T00:55:42;6.70;;;2.50;;
42294;SDS011;27947;47.556;18.718;2023-04-12T00:58:08;4.38;;;2.30;;
42294;SDS011;27947;47.556;18.718;2023-04-12T01:00:33;5.30;;;2.47;;
42294;SDS011;27947;47.556;18.718;2023-04-12T01:02:59;4.68;;;2.80;;
42294;SDS011;27947;47.556;18.718;2023-04-12T01:05:26;4.07;;;2.60;;
42294;SDS011;27947;47.556;18.718;2023-04-12T01:13:15;5.43;;;2.78;;
42294;SDS011;27947;47.556;18.718;2023-04-12T01:15:49;4.78;;;2.45;;
42294;SDS011;27947;47.556;18.718;2023-04-12T01:18:18;6.10;;;3.05;;
42294;SDS011;27947;47.556;18.718;2023-04-12T01:20:53;4.57;;;2.60;;
42294;SDS011;27947;47.556;18.718;2023-04-12T01:28:42;3.72;;;2.60;;
42294;SDS011;27947;47.556;18.718;2023-04-12T01:31:10;4.35;;;2.47;;
42294;SDS011;27947;47.556;18.718;2023-04-12T01:33:37;6.72;;;2.67;;
42294;SDS011;27947;47.556;18.718;2023-04-12T01:36:07;6.10;;;2.67;;
42294;SDS011;27947;47.556;18.718;2023-04-12T01:38:33;4.63;;;2.75;;
42294;SDS011;27947;47.556;18.718;2023-04-12T01:40:59;3.67;;;2.20;;
42294;SDS011;27947;47.556;18.718;2023-04-12T01:43:24;4.53;;;2.42;;
42294;SDS011;27947;47.556;18.718;2023-04-12T01:45:49;6.38;;;2.50;;
42294;SDS011;27947;47.556;18.718;2023-04-12T01:48:15;4.28;;;2.63;;
42294;SDS011;27947;47.556;18.718;2023-04-12T01:50:49;3.67;;;2.50;;
42294;SDS011;27947;47.556;18.718;2023-04-12T01:53:22;3.88;;;2.58;;
42294;SDS011;27947;47.556;18.718;2023-04-12T01:55:48;7.38;;;2.70;;
42294;SDS011;27947;47.556;18.718;2023-04-12T01:58:16;6.68;;;3.38;;
42294;SDS011;27947;47.556;18.718;2023-04-12T02:00:43;6.47;;;3.10;;
42294;SDS011;27947;47.556;18.718;2023-04-12T02:03:10;4.93;;;2.92;;
42294;SDS011;27947;47.556;18.718;2023-04-12T02:05:36;5.63;;;3.53;;
42294;SDS011;27947;47.556;18.718;2023-04-12T02:08:01;5.13;;;3.42;;
42294;SDS011;27947;47.556;18.718;2023-04-12T02:10:29;5.00;;;3.03;;
42294;SDS011;27947;47.556;18.718;2023-04-12T02:12:56;5.88;;;3.38;;
42294;SDS011;27947;47.556;18.718;2023-04-12T02:15:22;4.47;;;2.97;;
42294;SDS011;27947;47.556;18.718;2023-04-12T02:17:47;4.13;;;2.97;;
42294;SDS011;27947;47.556;18.718;2023-04-12T02:20:12;5.10;;;3.20;;
42294;SDS011;27947;47.556;18.718;2023-04-12T02:22:38;6.30;;;3.03;;
42294;SDS011;27947;47.556;18.718;2023-04-12T02:25:03;7.22;;;3.05;;
42294;SDS011;27947;47.556;18.718;2023-04-12T02:27:32;6.15;;;3.30;;
42294;SDS011;27947;47.556;18.718;2023-04-12T02:29:58;7.07;;;3.40;;
42294;SDS011;27947;47.556;18.718;2023-04-12T02:32:24;6.68;;;3.35;;
42294;SDS011;27947;47.556;18.718;2023-04-12T02:34:49;3.78;;;2.92;;
42294;SDS011;27947;47.556;18.718;2023-04-12T02:37:17;4.90;;;2.97;;
42294;SDS011;27947;47.556;18.718;2023-04-12T02:39:46;4.93;;;2.80;;
42294;SDS011;27947;47.556;18.718;2023-04-12T02:42:12;5.05;;;2.95;;
42294;SDS011;27947;47.556;18.718;2023-04-12T02:44:38;6.63;;;3.10;;
42294;SDS011;27947;47.556;18.718;2023-04-12T02:47:10;5.88;;;3.10;;
42294;SDS011;27947;47.556;18.718;2023-04-12T02:49:36;4.80;;;3.05;;
42294;SDS011;27947;47.556;18.718;2023-04-12T02:52:02;6.93;;;3.20;;
42294;SDS011;27947;47.556;18.718;2023-04-12T02:54:36;4.70;;;3.17;;
42294;SDS011;27947;47.556;18.718;2023-04-12T02:57:02;5.03;;;3.03;;
42294;SDS011;27947;47.556;18.718;2023-04-12T02:59:39;5.63;;;3.47;;
42294;SDS011;27947;47.556;18.718;2023-04-12T03:02:13;6.47;;;3.58;;
42294;SDS011;27947;47.556;18.718;2023-04-12T03:04:39;4.60;;;3.10;;
42294;SDS011;27947;47.556;18.718;2023-04-12T03:07:08;4.63;;;2.92;;
42294;SDS011;27947;47.556;18.718;2023-04-12T03:09:42;8.38;;;3.13;;
42294;SDS011;27947;47.556;18.718;2023-04-12T03:12:09;5.05;;;3.40;;
42294;SDS011;27947;47.556;18.718;2023-04-12T03:14:41;5.95;;;3.22;;
42294;SDS011;27947;47.556;18.718;2023-04-12T03:17:07;7.60;;;3.40;;
42294;SDS011;27947;47.556;18.718;2023-04-12T03:19:35;9.95;;;3.35;;
42294;SDS011;27947;47.556;18.718;2023-04-12T03:22:01;8.13;;;3.47;;
42294;SDS011;27947;47.556;18.718;2023-04-12T03:24:30;7.13;;;3.10;;
42294;SDS011;27947;47.556;18.718;2023-04-12T03:27:00;7.32;;;3.38;;
42294;SDS011;27947;47.556;18.718;2023-04-12T03:29:26;5.47;;;3.30;;
42294;SDS011;27947;47.556;18.718;2023-04-12T03:31:53;5.07;;;3.08;;
42294;SDS011;27947;47.556;18.718;2023-04-12T03:34:18;5.05;;;3.60;;
42294;SDS011;27947;47.556;18.718;2023-04-12T03:36:48;7.10;;;3.42;;
42294;SDS011;27947;47.556;18.718;2023-04-12T03:39:21;5.13;;;3.55;;
42294;SDS011;27947;47.556;18.718;2023-04-12T03:41:50;7.93;;;2.70;;
42294;SDS011;27947;47.556;18.718;2023-04-12T03:44:18;5.47;;;3.42;;
42294;SDS011;27947;47.556;18.718;2023-04-12T03:46:43;4.45;;;3.25;;
42294;SDS011;27947;47.556;18.718;2023-04-12T03:49:10;5.47;;;3.42;;
42294;SDS011;27947;47.556;18.718;2023-04-12T03:51:35;4.95;;;3.17;;
42294;SDS011;27947;47.556;18.718;2023-04-12T03:54:08;4.82;;;3.05;;
42294;SDS011;27947;47.556;18.718;2023-04-12T03:56:42;10.85;;;3.53;;
42294;SDS011;27947;47.556;18.718;2023-04-12T03:59:14;5.07;;;3.22;;
42294;SDS011;27947;47.556;18.718;2023-04-12T04:01:41;7.05;;;3.50;;
42294;SDS011;27947;47.556;18.718;2023-04-12T04:04:07;5.90;;;3.58;;
42294;SDS011;27947;47.556;18.718;2023-04-12T04:06:33;6.75;;;3.50;;
42294;SDS011;27947;47.556;18.718;2023-04-12T04:08:58;6.60;;;3.65;;
42294;SDS011;27947;47.556;18.718;2023-04-12T04:11:25;6.80;;;3.60;;
42294;SDS011;27947;47.556;18.718;2023-04-12T04:13:56;5.38;;;3.30;;
42294;SDS011;27947;47.556;18.718;2023-04-12T04:16:22;5.90;;;3.60;;
42294;SDS011;27947;47.556;18.718;2023-04-12T04:18:49;6.65;;;3.63;;
42294;SDS011;27947;47.556;18.718;2023-04-12T04:21:17;6.35;;;3.67;;
42294;SDS011;27947;47.556;18.718;2023-04-12T04:23:44;6.63;;;3.70;;
42294;SDS011;27947;47.556;18.718;2023-04-12T04:26:09;16.50;;;9.27;;
42294;SDS011;27947;47.556;18.718;2023-04-12T04:28:39;6.72;;;4.13;;
42294;SDS011;27947;47.556;18.718;2023-04-12T04:31:06;7.50;;;4.40;;
42294;SDS011;27947;47.556;18.718;2023-04-12T04:33:37;7.10;;;4.90;;
42294;SDS011;27947;47.556;18.718;2023-04-12T04:36:03;5.90;;;3.80;;
42294;SDS011;27947;47.556;18.718;2023-04-12T04:38:30;5.90;;;3.33;;
42294;SDS011;27947;47.556;18.718;2023-04-12T04:41:15;6.40;;;2.90;;
42294;SDS011;27947;47.556;18.718;2023-04-12T04:43:55;9.40;;;4.03;;
42294;SDS011;27947;47.556;18.718;2023-04-12T04:46:22;7.88;;;3.50;;
42294;SDS011;27947;47.556;18.718;2023-04-12T04:48:48;6.40;;;4.03;;
42294;SDS011;27947;47.556;18.718;2023-04-12T04:51:14;5.60;;;3.30;;
42294;SDS011;27947;47.556;18.718;2023-04-12T04:53:40;5.22;;;3.28;;
42294;SDS011;27947;47.556;18.718;2023-04-12T04:56:07;5.72;;;3.50;;
42294;SDS011;27947;47.556;18.718;2023-04-12T04:58:33;6.57;;;3.60;;
42294;SDS011;27947;47.556;18.718;2023-04-12T05:00:59;5.25;;;3.08;;
42294;SDS011;27947;47.556;18.718;2023-04-12T05:03:27;6.78;;;3.13;;
42294;SDS011;27947;47.556;18.718;2023-04-12T05:05:55;10.80;;;3.50;;
42294;SDS011;27947;47.556;18.718;2023-04-12T05:08:21;6.07;;;3.30;;
42294;SDS011;27947;47.556;18.718;2023-04-12T05:10:51;6.03;;;3.28;;
42294;SDS011;27947;47.556;18.718;2023-04-12T05:13:18;6.80;;;4.00;;
42294;SDS011;27947;47.556;18.718;2023-04-12T05:15:43;5.95;;;4.10;;
42294;SDS011;27947;47.556;18.718;2023-04-12T05:18:09;9.85;;;3.90;;
42294;SDS011;27947;47.556;18.718;2023-04-12T05:20:36;5.57;;;3.60;;
42294;SDS011;27947;47.556;18.718;2023-04-12T05:23:02;7.32;;;3.97;;
42294;SDS011;27947;47.556;18.718;2023-04-12T05:25:27;7.38;;;4.40;;
42294;SDS011;27947;47.556;18.718;2023-04-12T05:28:01;6.70;;;4.20;;
42294;SDS011;27947;47.556;18.718;2023-04-12T05:30:26;7.22;;;5.68;;
42294;SDS011;27947;47.556;18.718;2023-04-12T05:32:51;7.25;;;4.28;;
42294;SDS011;27947;47.556;18.718;2023-04-12T05:35:18;7.53;;;3.95;;
42294;SDS011;27947;47.556;18.718;2023-04-12T05:37:44;7.63;;;4.55;;
42294;SDS011;27947;47.556;18.718;2023-04-12T05:40:11;8.07;;;4.40;;
42294;SDS011;27947;47.556;18.718;2023-04-12T05:42:37;7.25;;;3.58;;
42294;SDS011;27947;47.556;18.718;2023-04-12T05:45:03;5.78;;;3.97;;
42294;SDS011;27947;47.556;18.718;2023-04-12T05:47:29;6.47;;;4.13;;
42294;SDS011;27947;47.556;18.718;2023-04-12T05:49:55;6.30;;;3.85;;
42294;SDS011;27947;47.556;18.718;2023-04-12T05:52:21;8.50;;;4.10;;
42294;SDS011;27947;47.556;18.718;2023-04-12T05:54:47;6.15;;;3.03;;
42294;SDS011;27947;47.556;18.718;2023-04-12T05:57:15;6.65;;;3.95;;
42294;SDS011;27947;47.556;18.718;2023-04-12T05:59:42;6.57;;;3.85;;
42294;SDS011;27947;47.556;18.718;2023-04-12T06:02:07;5.97;;;3.10;;
42294;SDS011;27947;47.556;18.718;2023-04-12T06:04:34;4.95;;;3.20;;
42294;SDS011;27947;47.556;18.718;2023-04-12T06:06:59;4.68;;;2.90;;
42294;SDS011;27947;47.556;18.718;2023-04-12T06:09:25;4.70;;;3.10;;
42294;SDS011;27947;47.556;18.718;2023-04-12T06:11:51;6.45;;;3.10;;
42294;SDS011;27947;47.556;18.718;2023-04-12T06:14:18;5.32;;;3.00;;
42294;SDS011;27947;47.556;18.718;2023-04-12T06:16:44;6.72;;;3.30;;
42294;SDS011;27947;47.556;18.718;2023-04-12T06:19:10;4.28;;;2.97;;
42294;SDS011;27947;47.556;18.718;2023-04-12T06:21:35;6.05;;;2.80;;
42294;SDS011;27947;47.556;18.718;2023-04-12T06:24:00;8.50;;;2.90;;
42294;SDS011;27947;47.556;18.718;2023-04-12T06:26:26;4.28;;;2.60;;
42294;SDS011;27947;47.556;18.718;2023-04-12T06:28:52;5.18;;;3.30;;
42294;SDS011;27947;47.556;18.718;2023-04-12T06:31:18;5.93;;;3.28;;
42294;SDS011;27947;47.556;18.718;2023-04-12T06:33:43;6.40;;;3.28;;
42294;SDS011;27947;47.556;18.718;2023-04-12T06:36:10;6.13;;;3.38;;
42294;SDS011;27947;47.556;18.718;2023-04-12T06:38:35;5.30;;;2.95;;
42294;SDS011;27947;47.556;18.718;2023-04-12T06:41:01;6.30;;;3.08;;
42294;SDS011;27947;47.556;18.718;2023-04-12T06:43:26;4.88;;;3.28;;
42294;SDS011;27947;47.556;18.718;2023-04-12T06:45:51;5.10;;;3.10;;
42294;SDS011;27947;47.556;18.718;2023-04-12T06:48:17;5.40;;;3.20;;
42294;SDS011;27947;47.556;18.718;2023-04-12T06:50:45;7.50;;;3.53;;
42294;SDS011;27947;47.556;18.718;2023-04-12T06:53:11;5.20;;;3.20;;
42294;SDS011;27947;47.556;18.718;2023-04-12T06:55:37;8.43;;;3.67;;
42294;SDS011;27947;47.556;18.718;2023-04-12T06:58:03;5.18;;;3.00;;
42294;SDS011;27947;47.556;18.718;2023-04-12T07:00:28;4.43;;;2.85;;
42294;SDS011;27947;47.556;18.718;2023-04-12T07:02:53;5.28;;;2.85;;
42294;SDS011;27947;47.556;18.718;2023-04-12T07:05:19;5.25;;;3.25;;
42294;SDS011;27947;47.556;18.718;2023-04-12T07:07:44;4.72;;;3.10;;
42294;SDS011;27947;47.556;18.718;2023-04-12T07:10:10;5.88;;;3.30;;
42294;SDS011;27947;47.556;18.718;2023-04-12T07:12:35;4.70;;;2.88;;
42294;SDS011;27947;47.556;18.718;2023-04-12T07:15:01;8.02;;;2.70;;
42294;SDS011;27947;47.556;18.718;2023-04-12T07:17:26;5.68;;;2.58;;
42294;SDS011;27947;47.556;18.718;2023-04-12T07:19:52;4.47;;;2.50;;
42294;SDS011;27947;47.556;18.718;2023-04-12T07:22:18;8.25;;;2.85;;
42294;SDS011;27947;47.556;18.718;2023-04-12T07:24:43;3.65;;;2.10;;
42294;SDS011;27947;47.556;18.718;2023-04-12T07:27:08;4.53;;;2.78;;
42294;SDS011;27947;47.556;18.718;2023-04-12T07:29:35;4.63;;;3.20;;
42294;SDS011;27947;47.556;18.718;2023-04-12T07:32:01;4.47;;;2.15;;
42294;SDS011;27947;47.556;18.718;2023-04-12T07:34:27;3.42;;;2.08;;
42294;SDS011;27947;47.556;18.718;2023-04-12T07:36:52;3.38;;;1.98;;
42294;SDS011;27947;47.556;18.718;2023-04-12T07:39:17;3.60;;;2.00;;
42294;SDS011;27947;47.556;18.718;2023-04-12T07:41:43;8.50;;;2.58;;
42294;SDS011;27947;47.556;18.718;2023-04-12T07:44:10;8.27;;;2.30;;
42294;SDS011;27947;47.556;18.718;2023-04-12T07:46:35;5.20;;;2.20;;
42294;SDS011;27947;47.556;18.718;2023-04-12T07:49:01;2.80;;;2.10;;
42294;SDS011;27947;47.556;18.718;2023-04-12T07:51:26;3.60;;;1.80;;
42294;SDS011;27947;47.556;18.718;2023-04-12T07:53:51;4.68;;;2.05;;
42294;SDS011;27947;47.556;18.718;2023-04-12T07:56:17;3.65;;;2.00;;
42294;SDS011;27947;47.556;18.718;2023-04-12T07:58:42;3.38;;;2.10;;
42294;SDS011;27947;47.556;18.718;2023-04-12T08:01:09;4.25;;;2.30;;
42294;SDS011;27947;47.556;18.718;2023-04-12T08:03:35;5.53;;;2.50;;
42294;SDS011;27947;47.556;18.718;2023-04-12T08:06:01;7.30;;;2.28;;
42294;SDS011;27947;47.556;18.718;2023-04-12T08:08:27;3.78;;;2.20;;
42294;SDS011;27947;47.556;18.718;2023-04-12T08:10:52;5.68;;;2.40;;
42294;SDS011;27947;47.556;18.718;2023-04-12T08:13:17;6.50;;;2.42;;
42294;SDS011;27947;47.556;18.718;2023-04-12T08:15:43;4.45;;;2.10;;
42294;SDS011;27947;47.556;18.718;2023-04-12T08:18:09;4.93;;;2.30;;
42294;SDS011;27947;47.556;18.718;2023-04-12T08:20:35;5.22;;;2.50;;
42294;SDS011;27947;47.556;18.718;2023-04-12T08:23:00;4.00;;;2.25;;
42294;SDS011;27947;47.556;18.718;2023-04-12T08:25:26;3.38;;;2.28;;
42294;SDS011;27947;47.556;18.718;2023-04-12T08:27:51;4.75;;;2.28;;
42294;SDS011;27947;47.556;18.718;2023-04-12T08:30:17;5.80;;;2.40;;
42294;SDS011;27947;47.556;18.718;2023-04-12T08:32:42;4.35;;;2.30;;
42294;SDS011;27947;47.556;18.718;2023-04-12T08:35:08;4.07;;;2.50;;
42294;SDS011;27947;47.556;18.718;2023-04-12T08:37:33;5.47;;;2.20;;
42294;SDS011;27947;47.556;18.718;2023-04-12T08:40:01;5.82;;;2.10;;
42294;SDS011;27947;47.556;18.718;2023-04-12T08:42:28;5.95;;;2.67;;
42294;SDS011;27947;47.556;18.718;2023-04-12T08:44:54;4.13;;;2.40;;
42294;SDS011;27947;47.556;18.718;2023-04-12T08:47:20;4.85;;;2.00;;
42294;SDS011;27947;47.556;18.718;2023-04-12T08:49:46;5.28;;;2.05;;
42294;SDS011;27947;47.556;18.718;2023-04-12T08:52:12;4.70;;;1.55;;
42294;SDS011;27947;47.556;18.718;2023-04-12T08:54:37;3.30;;;1.50;;
42294;SDS011;27947;47.556;18.718;2023-04-12T08:57:03;3.10;;;1.70;;
42294;SDS011;27947;47.556;18.718;2023-04-12T08:59:29;4.30;;;1.80;;
42294;SDS011;27947;47.556;18.718;2023-04-12T09:01:55;3.30;;;1.70;;
42294;SDS011;27947;47.556;18.718;2023-04-12T09:04:21;2.97;;;1.60;;
42294;SDS011;27947;47.556;18.718;2023-04-12T09:06:47;2.53;;;1.40;;
42294;SDS011;27947;47.556;18.718;2023-04-12T09:09:12;3.70;;;1.50;;
42294;SDS011;27947;47.556;18.718;2023-04-12T09:11:38;4.60;;;1.60;;
42294;SDS011;27947;47.556;18.718;2023-04-12T09:14:14;5.30;;;1.63;;
42294;SDS011;27947;47.556;18.718;2023-04-12T09:16:44;6.63;;;1.65;;
42294;SDS011;27947;47.556;18.718;2023-04-12T09:19:09;3.13;;;1.52;;
42294;SDS011;27947;47.556;18.718;2023-04-12T09:21:34;3.45;;;1.45;;
42294;SDS011;27947;47.556;18.718;2023-04-12T09:24:01;3.42;;;1.15;;
42294;SDS011;27947;47.556;18.718;2023-04-12T09:26:27;3.05;;;1.38;;
42294;SDS011;27947;47.556;18.718;2023-04-12T09:28:53;4.72;;;1.65;;
42294;SDS011;27947;47.556;18.718;2023-04-12T09:31:18;3.85;;;1.48;;
42294;SDS011;27947;47.556;18.718;2023-04-12T09:33:44;5.07;;;1.30;;
42294;SDS011;27947;47.556;18.718;2023-04-12T09:36:10;2.47;;;1.13;;
42294;SDS011;27947;47.556;18.718;2023-04-12T09:38:38;7.95;;;1.65;;
42294;SDS011;27947;47.556;18.718;2023-04-12T09:41:15;4.90;;;1.50;;
42294;SDS011;27947;47.556;18.718;2023-04-12T09:43:41;3.95;;;1.90;;
42294;SDS011;27947;47.556;18.718;2023-04-12T09:46:08;6.82;;;1.63;;
42294;SDS011;27947;47.556;18.718;2023-04-12T09:48:33;3.10;;;1.50;;
42294;SDS011;27947;47.556;18.718;2023-04-12T09:50:59;6.38;;;1.80;;
42294;SDS011;27947;47.556;18.718;2023-04-12T09:53:25;5.38;;;1.70;;
42294;SDS011;27947;47.556;18.718;2023-04-12T09:55:51;3.50;;;1.52;;
42294;SDS011;27947;47.556;18.718;2023-04-12T09:58:18;2.55;;;1.58;;
42294;SDS011;27947;47.556;18.718;2023-04-12T10:00:43;3.65;;;1.40;;
42294;SDS011;27947;47.556;18.718;2023-04-12T10:03:10;3.22;;;1.48;;
42294;SDS011;27947;47.556;18.718;2023-04-12T10:05:35;6.13;;;1.55;;
42294;SDS011;27947;47.556;18.718;2023-04-12T10:08:03;3.83;;;1.55;;
42294;SDS011;27947;47.556;18.718;2023-04-12T10:10:29;4.28;;;1.58;;
42294;SDS011;27947;47.556;18.718;2023-04-12T10:12:55;5.85;;;1.38;;
42294;SDS011;27947;47.556;18.718;2023-04-12T10:15:20;5.72;;;1.60;;
42294;SDS011;27947;47.556;18.718;2023-04-12T10:17:53;3.55;;;1.70;;
42294;SDS011;27947;47.556;18.718;2023-04-12T10:20:19;4.68;;;1.10;;
42294;SDS011;27947;47.556;18.718;2023-04-12T10:22:48;3.65;;;1.23;;
42294;SDS011;27947;47.556;18.718;2023-04-12T10:25:19;4.00;;;1.20;;
42294;SDS011;27947;47.556;18.718;2023-04-12T10:27:45;3.57;;;1.67;;
42294;SDS011;27947;47.556;18.718;2023-04-12T10:32:42;2.85;;;0.98;;
42294;SDS011;27947;47.556;18.718;2023-04-12T10:35:08;3.92;;;1.40;;
42294;SDS011;27947;47.556;18.718;2023-04-12T10:40:36;3.70;;;1.30;;
42294;SDS011;27947;47.556;18.718;2023-04-12T10:45:43;2.25;;;1.40;;
42294;SDS011;27947;47.556;18.718;2023-04-12T10:53:38;5.85;;;1.50;;
42294;SDS011;27947;47.556;18.718;2023-04-12T11:01:13;7.55;;;1.92;;
42294;SDS011;27947;47.556;18.718;2023-04-12T11:14:36;4.15;;;1.58;;
42294;SDS011;27947;47.556;18.718;2023-04-12T11:19:33;5.47;;;2.50;;
42294;SDS011;27947;47.556;18.718;2023-04-12T11:21:59;3.63;;;1.50;;
42294;SDS011;27947;47.556;18.718;2023-04-12T11:24:25;3.83;;;1.88;;
42294;SDS011;27947;47.556;18.718;2023-04-12T11:26:51;3.55;;;1.60;;
42294;SDS011;27947;47.556;18.718;2023-04-12T11:29:23;3.53;;;1.38;;
42294;SDS011;27947;47.556;18.718;2023-04-12T11:31:48;3.20;;;1.27;;
42294;SDS011;27947;47.556;18.718;2023-04-12T11:34:16;4.97;;;1.30;;
42294;SDS011;27947;47.556;18.718;2023-04-12T11:36:41;5.25;;;1.75;;
42294;SDS011;27947;47.556;18.718;2023-04-12T11:39:07;2.25;;;1.55;;
42294;SDS011;27947;47.556;18.718;2023-04-12T11:41:32;5.32;;;2.40;;
42294;SDS011;27947;47.556;18.718;2023-04-12T11:43:58;10.55;;;2.00;;
42294;SDS011;27947;47.556;18.718;2023-04-12T11:46:23;4.20;;;1.88;;
42294;SDS011;27947;47.556;18.718;2023-04-12T11:48:49;3.00;;;1.20;;
42294;SDS011;27947;47.556;18.718;2023-04-12T11:51:21;2.03;;;1.38;;
42294;SDS011;27947;47.556;18.718;2023-04-12T11:53:52;5.53;;;1.42;;
42294;SDS011;27947;47.556;18.718;2023-04-12T11:56:18;4.57;;;1.33;;
42294;SDS011;27947;47.556;18.718;2023-04-12T11:58:45;4.10;;;1.55;;
42294;SDS011;27947;47.556;18.718;2023-04-12T12:01:10;3.35;;;1.50;;
42294;SDS011;27947;47.556;18.718;2023-04-12T12:03:36;4.40;;;1.70;;
42294;SDS011;27947;47.556;18.718;2023-04-12T12:06:02;5.32;;;1.70;;
42294;SDS011;27947;47.556;18.718;2023-04-12T12:08:27;4.90;;;1.80;;
42294;SDS011;27947;47.556;18.718;2023-04-12T12:10:53;4.68;;;1.85;;
42294;SDS011;27947;47.556;18.718;2023-04-12T12:13:19;3.75;;;1.40;;
42294;SDS011;27947;47.556;18.718;2023-04-12T12:15:44;3.55;;;1.55;;
42294;SDS011;27947;47.556;18.718;2023-04-12T12:18:10;4.78;;;1.90;;
42294;SDS011;27947;47.556;18.718;2023-04-12T12:20:39;3.70;;;1.98;;
42294;SDS011;27947;47.556;18.718;2023-04-12T12:23:05;6.45;;;1.45;;
42294;SDS011;27947;47.556;18.718;2023-04-12T12:25:31;2.63;;;1.60;;
42294;SDS011;27947;47.556;18.718;2023-04-12T12:27:56;5.43;;;1.90;;
42294;SDS011;27947;47.556;18.718;2023-04-12T12:30:22;2.58;;;1.30;;
42294;SDS011;27947;47.556;18.718;2023-04-12T12:32:48;5.25;;;1.75;;
42294;SDS011;27947;47.556;18.718;2023-04-12T12:35:14;6.45;;;1.38;;
42294;SDS011;27947;47.556;18.718;2023-04-12T12:37:49;6.57;;;2.97;;
42294;SDS011;27947;47.556;18.718;2023-04-12T12:40:15;3.30;;;1.60;;
42294;SDS011;27947;47.556;18.718;2023-04-12T12:45:10;3.65;;;1.45;;
42294;SDS011;27947;47.556;18.718;2023-04-12T12:47:52;5.20;;;1.40;;
42294;SDS011;27947;47.556;18.718;2023-04-12T12:50:21;3.63;;;1.60;;
42294;SDS011;27947;47.556;18.718;2023-04-12T12:52:47;4.57;;;1.70;;
42294;SDS011;27947;47.556;18.718;2023-04-12T12:55:16;3.55;;;1.80;;
42294;SDS011;27947;47.556;18.718;2023-04-12T12:57:42;4.60;;;1.90;;
42294;SDS011;27947;47.556;18.718;2023-04-12T13:00:08;4.25;;;2.35;;
42294;SDS011;27947;47.556;18.718;2023-04-12T13:02:34;2.55;;;1.80;;
42294;SDS011;27947;47.556;18.718;2023-04-12T13:05:01;3.38;;;1.88;;
42294;SDS011;27947;47.556;18.718;2023-04-12T13:07:27;3.35;;;1.85;;
42294;SDS011;27947;47.556;18.718;2023-04-12T13:09:52;3.25;;;1.65;;
42294;SDS011;27947;47.556;18.718;2023-04-12T13:12:17;3.10;;;1.60;;
42294;SDS011;27947;47.556;18.718;2023-04-12T13:14:45;3.75;;;1.70;;
42294;SDS011;27947;47.556;18.718;2023-04-12T13:17:10;3.83;;;1.63;;
42294;SDS011;27947;47.556;18.718;2023-04-12T13:19:36;5.25;;;1.60;;
42294;SDS011;27947;47.556;18.718;2023-04-12T13:22:01;5.63;;;2.30;;
42294;SDS011;27947;47.556;18.718;2023-04-12T13:24:26;6.20;;;1.80;;
42294;SDS011;27947;47.556;18.718;2023-04-12T13:26:52;3.97;;;1.67;;
42294;SDS011;27947;47.556;18.718;2023-04-12T13:29:17;6.10;;;1.73;;
42294;SDS011;27947;47.556;18.718;2023-04-12T13:31:42;3.65;;;1.70;;
42294;SDS011;27947;47.556;18.718;2023-04-12T13:34:08;3.63;;;1.50;;
42294;SDS011;27947;47.556;18.718;2023-04-12T13:36:33;5.57;;;1.60;;
42294;SDS011;27947;47.556;18.718;2023-04-12T13:38:58;4.70;;;2.28;;
42294;SDS011;27947;47.556;18.718;2023-04-12T13:41:24;5.13;;;1.70;;
42294;SDS011;27947;47.556;18.718;2023-04-12T13:43:49;4.25;;;2.10;;
42294;SDS011;27947;47.556;18.718;2023-04-12T13:46:15;4.70;;;1.80;;
42294;SDS011;27947;47.556;18.718;2023-04-12T13:48:40;4.25;;;1.70;;
42294;SDS011;27947;47.556;18.718;2023-04-12T13:51:06;5.07;;;2.20;;
42294;SDS011;27947;47.556;18.718;2023-04-12T13:53:32;2.22;;;1.55;;
42294;SDS011;27947;47.556;18.718;2023-04-12T13:55:57;3.97;;;1.45;;
42294;SDS011;27947;47.556;18.718;2023-04-12T13:58:23;3.90;;;1.80;;
42294;SDS011;27947;47.556;18.718;2023-04-12T14:00:49;3.53;;;1.70;;
42294;SDS011;27947;47.556;18.718;2023-04-12T14:03:17;4.30;;;1.92;;
42294;SDS011;27947;47.556;18.718;2023-04-12T14:05:43;2.45;;;1.50;;
42294;SDS011;27947;47.556;18.718;2023-04-12T14:08:08;3.05;;;1.67;;
42294;SDS011;27947;47.556;18.718;2023-04-12T14:10:33;3.80;;;1.80;;
42294;SDS011;27947;47.556;18.718;2023-04-12T14:12:59;5.90;;;1.83;;
42294;SDS011;27947;47.556;18.718;2023-04-12T14:15:24;2.78;;;1.42;;
42294;SDS011;27947;47.556;18.718;2023-04-12T14:17:49;2.97;;;1.90;;
42294;SDS011;27947;47.556;18.718;2023-04-12T14:20:15;5.53;;;1.70;;
42294;SDS011;27947;47.556;18.718;2023-04-12T14:22:40;4.85;;;1.77;;
42294;SDS011;27947;47.556;18.718;2023-04-12T14:25:06;7.15;;;2.10;;
42294;SDS011;27947;47.556;18.718;2023-04-12T14:27:32;3.80;;;2.10;;
42294;SDS011;27947;47.556;18.718;2023-04-12T14:29:59;2.55;;;1.50;;
42294;SDS011;27947;47.556;18.718;2023-04-12T14:32:24;2.75;;;1.48;;
42294;SDS011;27947;47.556;18.718;2023-04-12T14:34:50;7.28;;;2.03;;
42294;SDS011;27947;47.556;18.718;2023-04-12T14:37:15;5.43;;;1.90;;
42294;SDS011;27947;47.556;18.718;2023-04-12T14:39:41;2.70;;;1.60;;
42294;SDS011;27947;47.556;18.718;2023-04-12T14:42:06;3.08;;;1.60;;
42294;SDS011;27947;47.556;18.718;2023-04-12T14:44:32;4.10;;;2.15;;
42294;SDS011;27947;47.556;18.718;2023-04-12T14:46:57;3.85;;;1.80;;
42294;SDS011;27947;47.556;18.718;2023-04-12T14:49:23;2.63;;;1.77;;
42294;SDS011;27947;47.556;18.718;2023-04-12T14:51:48;3.80;;;1.77;;
42294;SDS011;27947;47.556;18.718;2023-04-12T14:54:14;3.83;;;1.70;;
42294;SDS011;27947;47.556;18.718;2023-04-12T14:56:39;5.40;;;1.50;;
42294;SDS011;27947;47.556;18.718;2023-04-12T14:59:04;4.20;;;2.10;;
42294;SDS011;27947;47.556;18.718;2023-04-12T15:01:30;3.72;;;1.65;;
42294;SDS011;27947;47.556;18.718;2023-04-12T15:03:55;2.58;;;1.73;;
42294;SDS011;27947;47.556;18.718;2023-04-12T15:06:21;10.65;;;1.98;;
42294;SDS011;27947;47.556;18.718;2023-04-12T15:08:48;3.97;;;1.58;;
42294;SDS011;27947;47.556;18.718;2023-04-12T15:11:18;8.07;;;2.33;;
42294;SDS011;27947;47.556;18.718;2023-04-12T15:13:46;2.92;;;1.85;;
42294;SDS011;27947;47.556;18.718;2023-04-12T15:16:13;4.13;;;1.65;;